Terminal Aerodrome Forecast
Issued by NWS Brownsville, TX

Home | Current Version | Previous Version | Text Only | Print | Product List | Glossary On
Versions: 1 2 3 4 5 6 7 8 9 10 11 12 13 14 15 16 17 18 19 20 21 22 23 24
000
FTUS44 KBRO 191722
TAFMFE
TAF
KMFE 191722Z 1918/2018 13008KT P6SM BKN025
     FM192000 14010KT P6SM SCT030
     FM200200 15008KT P6SM SCT035
     FM200330 15006KT P6SM OVC015
     FM200600 16003KT 5SM BR OVC005
     FM201100 02008KT 4SM BR VCTS OVC008CB
     FM201600 05010G18KT 6SM BR VCTS OVC015CB=

USA.gov is the U.S. government's official web portal to all federal, state and local government web resources and services.